Philadelphia International Airport
KPHL : rendu visible

Aérodrome :











RETROUVEZ-NOUS SUR...

 
LOGIN :

S'inscrire | Disclaimer

   EN    FR    IT 

 









Légende :    VFR   VFR Marginal   IFR   IFR Intensif   IFR Très Intensif
Visi : 
Plafond : 
>= 8 km
>= 3000ft
5 à 8 km
1000 à 3000 ft
1500m à 5 km
500 à 1000 ft
800 à 1500m
200 à 500 ft
< 800m
< 200 ft
Symboles :   Orages  Brouillard  Fortes neiges  Fortes précipitations  Vent > 20 kt






- Altitude de l'aérodrome : 36 ft
- Code IATA : PHL


KPHL - Philadelphia International

DERNIER METAR :
  • 180854Z 35007KT 10SM OVC150 M06/M18 A3064 RMK AO2 SLP376 T10561178 56018 $

METARs EXPIRÉS :
  • 180754Z 36005KT 10SM OVC180 M06/M18 A3065 RMK AO2 SLP379 T10561178 $
  • 180654Z 35006KT 10SM OVC250 M06/M17 A3068 RMK AO2 SLP388 T10561172 $

TAF KPHL
Valide du 18 à 09h jusqu'au 19 à 12h UTC


180848Z 1809/1912 VRB05KT P6SM OVC150
FM181600 17006KT 6SM -SN BR OVC060
FM181900 17007KT 2SM -SN BR OVC020 WS020/23035KT
FM182100 18011KT 2SM -SNPL BR OVC008 WS020/23035KT
FM182300 19011KT 2SM -RAPL BR OVC005 WS020/23035KT
FM190000 20011KT 3SM -RA BR OVC005 WS020/23035KT
FM190200 23011KT 3SM BR OVC005 WS020/23035KT



MET'MAP, la Météo Aéronautique d'un coup d'oeil ! - Copyright ORBIFLY Décembre 2007 - Disclaimer

ORBIFLY MET'MAP TEAM :

Programmation & Développement : Alexandra Zaïnal
Sur une idée originale de : Baudouin d'Aumeries
Assistance à la programmation : Marc-Olivier Méhu
Soutien technique & logistique : Manuel Goepfert

Contact : metmap@orbifly.com




SOURCES & CREDITS :

   NOAA       Earth
Advisory